sensor_id;sensor_type;location;lat;lon;timestamp;P1;durP1;ratioP1;P2;durP2;ratioP2
11255;SDS011;5685;52.384;13.420;2022-11-15T00:02:26;13.00;;;11.80;;
11255;SDS011;5685;52.384;13.420;2022-11-15T00:05:28;11.40;;;10.47;;
11255;SDS011;5685;52.384;13.420;2022-11-15T00:08:30;12.13;;;11.13;;
11255;SDS011;5685;52.384;13.420;2022-11-15T00:11:35;11.70;;;10.70;;
11255;SDS011;5685;52.384;13.420;2022-11-15T00:14:37;11.70;;;10.70;;
11255;SDS011;5685;52.384;13.420;2022-11-15T00:17:39;12.87;;;11.67;;
11255;SDS011;5685;52.384;13.420;2022-11-15T00:20:42;12.33;;;11.33;;
11255;SDS011;5685;52.384;13.420;2022-11-15T00:23:44;12.60;;;11.50;;
11255;SDS011;5685;52.384;13.420;2022-11-15T00:26:48;12.70;;;11.60;;
11255;SDS011;5685;52.384;13.420;2022-11-15T00:29:50;12.37;;;11.30;;
11255;SDS011;5685;52.384;13.420;2022-11-15T00:32:53;12.87;;;11.70;;
11255;SDS011;5685;52.384;13.420;2022-11-15T00:35:59;12.57;;;11.47;;
11255;SDS011;5685;52.384;13.420;2022-11-15T00:39:03;13.43;;;12.13;;
11255;SDS011;5685;52.384;13.420;2022-11-15T00:42:07;12.20;;;11.10;;
11255;SDS011;5685;52.384;13.420;2022-11-15T00:45:10;12.53;;;11.43;;
11255;SDS011;5685;52.384;13.420;2022-11-15T00:48:12;13.07;;;11.77;;
11255;SDS011;5685;52.384;13.420;2022-11-15T00:51:14;12.23;;;11.13;;
11255;SDS011;5685;52.384;13.420;2022-11-15T00:54:16;11.57;;;10.67;;
11255;SDS011;5685;52.384;13.420;2022-11-15T00:57:20;13.03;;;11.83;;
11255;SDS011;5685;52.384;13.420;2022-11-15T01:00:22;12.70;;;11.60;;
11255;SDS011;5685;52.384;13.420;2022-11-15T01:03:25;11.97;;;10.97;;
11255;SDS011;5685;52.384;13.420;2022-11-15T01:06:27;12.67;;;11.60;;
11255;SDS011;5685;52.384;13.420;2022-11-15T01:09:29;13.47;;;12.27;;
11255;SDS011;5685;52.384;13.420;2022-11-15T01:12:33;12.53;;;11.43;;
11255;SDS011;5685;52.384;13.420;2022-11-15T01:15:38;12.20;;;11.10;;
11255;SDS011;5685;52.384;13.420;2022-11-15T01:18:41;11.67;;;10.67;;
11255;SDS011;5685;52.384;13.420;2022-11-15T01:21:44;12.53;;;11.53;;
11255;SDS011;5685;52.384;13.420;2022-11-15T01:24:47;12.10;;;11.10;;
11255;SDS011;5685;52.384;13.420;2022-11-15T01:27:53;12.70;;;11.60;;
11255;SDS011;5685;52.384;13.420;2022-11-15T01:30:57;12.87;;;11.70;;
11255;SDS011;5685;52.384;13.420;2022-11-15T01:34:00;12.43;;;11.43;;
11255;SDS011;5685;52.384;13.420;2022-11-15T01:37:03;12.87;;;11.77;;
11255;SDS011;5685;52.384;13.420;2022-11-15T01:40:05;12.80;;;11.73;;
11255;SDS011;5685;52.384;13.420;2022-11-15T01:43:23;12.47;;;11.37;;
11255;SDS011;5685;52.384;13.420;2022-11-15T01:46:29;12.30;;;11.20;;
11255;SDS011;5685;52.384;13.420;2022-11-15T01:49:35;13.23;;;12.00;;
11255;SDS011;5685;52.384;13.420;2022-11-15T01:52:40;12.13;;;11.13;;
11255;SDS011;5685;52.384;13.420;2022-11-15T01:55:44;13.17;;;12.07;;
11255;SDS011;5685;52.384;13.420;2022-11-15T01:58:47;13.00;;;11.80;;
11255;SDS011;5685;52.384;13.420;2022-11-15T02:01:51;12.17;;;11.07;;
11255;SDS011;5685;52.384;13.420;2022-11-15T02:04:53;12.30;;;11.30;;
11255;SDS011;5685;52.384;13.420;2022-11-15T02:07:56;11.97;;;10.77;;
11255;SDS011;5685;52.384;13.420;2022-11-15T02:10:58;12.70;;;11.53;;
11255;SDS011;5685;52.384;13.420;2022-11-15T02:14:02;12.10;;;11.00;;
11255;SDS011;5685;52.384;13.420;2022-11-15T02:17:10;11.90;;;10.87;;
11255;SDS011;5685;52.384;13.420;2022-11-15T02:20:34;12.30;;;11.23;;
11255;SDS011;5685;52.384;13.420;2022-11-15T02:24:27;12.47;;;11.37;;
11255;SDS011;5685;52.384;13.420;2022-11-15T02:28:06;12.60;;;11.60;;
11255;SDS011;5685;52.384;13.420;2022-11-15T02:31:36;12.60;;;11.40;;
11255;SDS011;5685;52.384;13.420;2022-11-15T02:34:50;12.17;;;11.23;;
11255;SDS011;5685;52.384;13.420;2022-11-15T02:38:05;13.23;;;12.13;;
11255;SDS011;5685;52.384;13.420;2022-11-15T02:41:13;11.37;;;10.47;;
11255;SDS011;5685;52.384;13.420;2022-11-15T02:44:19;12.40;;;11.33;;
11255;SDS011;5685;52.384;13.420;2022-11-15T02:47:26;11.90;;;10.90;;
11255;SDS011;5685;52.384;13.420;2022-11-15T02:50:31;12.43;;;11.43;;
11255;SDS011;5685;52.384;13.420;2022-11-15T02:53:34;12.40;;;11.30;;
11255;SDS011;5685;52.384;13.420;2022-11-15T02:56:37;11.63;;;10.63;;
11255;SDS011;5685;52.384;13.420;2022-11-15T03:03:15;12.30;;;11.23;;
11255;SDS011;5685;52.384;13.420;2022-11-15T03:06:34;12.30;;;11.20;;
11255;SDS011;5685;52.384;13.420;2022-11-15T03:09:45;11.90;;;10.90;;
11255;SDS011;5685;52.384;13.420;2022-11-15T03:12:55;12.13;;;11.10;;
11255;SDS011;5685;52.384;13.420;2022-11-15T03:16:02;12.43;;;11.33;;
11255;SDS011;5685;52.384;13.420;2022-11-15T03:19:12;12.93;;;11.80;;
11255;SDS011;5685;52.384;13.420;2022-11-15T03:22:22;12.47;;;11.33;;
11255;SDS011;5685;52.384;13.420;2022-11-15T03:25:27;11.33;;;10.30;;
11255;SDS011;5685;52.384;13.420;2022-11-15T03:28:32;11.93;;;10.87;;
11255;SDS011;5685;52.384;13.420;2022-11-15T03:31:38;12.63;;;11.53;;
11255;SDS011;5685;52.384;13.420;2022-11-15T03:34:51;11.97;;;10.97;;
11255;SDS011;5685;52.384;13.420;2022-11-15T03:37:59;11.90;;;10.90;;
11255;SDS011;5685;52.384;13.420;2022-11-15T03:41:08;12.73;;;11.73;;
11255;SDS011;5685;52.384;13.420;2022-11-15T03:44:24;12.67;;;11.57;;
11255;SDS011;5685;52.384;13.420;2022-11-15T03:47:38;12.10;;;11.10;;
11255;SDS011;5685;52.384;13.420;2022-11-15T03:50:46;11.80;;;10.73;;
11255;SDS011;5685;52.384;13.420;2022-11-15T03:53:50;11.43;;;10.53;;
11255;SDS011;5685;52.384;13.420;2022-11-15T03:56:52;12.17;;;11.17;;
11255;SDS011;5685;52.384;13.420;2022-11-15T03:59:54;12.87;;;11.77;;
11255;SDS011;5685;52.384;13.420;2022-11-15T04:02:57;12.13;;;11.20;;
11255;SDS011;5685;52.384;13.420;2022-11-15T04:06:00;12.40;;;11.30;;
11255;SDS011;5685;52.384;13.420;2022-11-15T04:09:03;11.37;;;10.47;;
11255;SDS011;5685;52.384;13.420;2022-11-15T04:12:05;11.43;;;10.53;;
11255;SDS011;5685;52.384;13.420;2022-11-15T04:15:09;11.10;;;10.30;;
11255;SDS011;5685;52.384;13.420;2022-11-15T04:18:13;11.77;;;10.77;;
11255;SDS011;5685;52.384;13.420;2022-11-15T04:21:16;12.27;;;11.27;;
11255;SDS011;5685;52.384;13.420;2022-11-15T04:24:36;12.40;;;11.40;;
11255;SDS011;5685;52.384;13.420;2022-11-15T04:27:38;11.40;;;10.50;;
11255;SDS011;5685;52.384;13.420;2022-11-15T04:30:41;12.87;;;11.77;;
11255;SDS011;5685;52.384;13.420;2022-11-15T04:33:43;11.53;;;10.63;;
11255;SDS011;5685;52.384;13.420;2022-11-15T04:36:47;12.67;;;11.57;;
11255;SDS011;5685;52.384;13.420;2022-11-15T04:40:07;12.07;;;11.10;;
11255;SDS011;5685;52.384;13.420;2022-11-15T04:43:10;12.50;;;11.40;;
11255;SDS011;5685;52.384;13.420;2022-11-15T04:46:12;12.07;;;11.07;;
11255;SDS011;5685;52.384;13.420;2022-11-15T04:49:15;12.00;;;10.93;;
11255;SDS011;5685;52.384;13.420;2022-11-15T04:52:18;12.33;;;11.33;;
11255;SDS011;5685;52.384;13.420;2022-11-15T04:55:21;11.87;;;10.90;;
11255;SDS011;5685;52.384;13.420;2022-11-15T04:58:23;12.63;;;11.53;;
11255;SDS011;5685;52.384;13.420;2022-11-15T05:01:26;12.67;;;11.60;;
11255;SDS011;5685;52.384;13.420;2022-11-15T05:04:29;12.07;;;11.07;;
11255;SDS011;5685;52.384;13.420;2022-11-15T05:07:31;11.30;;;10.40;;
11255;SDS011;5685;52.384;13.420;2022-11-15T05:10:34;11.90;;;10.90;;
11255;SDS011;5685;52.384;13.420;2022-11-15T05:13:36;12.67;;;11.57;;
11255;SDS011;5685;52.384;13.420;2022-11-15T05:16:38;12.40;;;11.30;;
11255;SDS011;5685;52.384;13.420;2022-11-15T05:19:41;13.07;;;11.87;;
11255;SDS011;5685;52.384;13.420;2022-11-15T05:22:46;13.10;;;11.90;;
11255;SDS011;5685;52.384;13.420;2022-11-15T05:25:48;11.80;;;10.80;;
11255;SDS011;5685;52.384;13.420;2022-11-15T05:28:54;12.33;;;11.13;;
11255;SDS011;5685;52.384;13.420;2022-11-15T05:31:57;12.63;;;11.47;;
11255;SDS011;5685;52.384;13.420;2022-11-15T05:35:00;12.73;;;11.63;;
11255;SDS011;5685;52.384;13.420;2022-11-15T05:38:04;12.30;;;11.03;;
11255;SDS011;5685;52.384;13.420;2022-11-15T05:41:06;12.10;;;11.10;;
11255;SDS011;5685;52.384;13.420;2022-11-15T05:44:09;12.50;;;11.40;;
11255;SDS011;5685;52.384;13.420;2022-11-15T05:47:16;13.07;;;11.77;;
11255;SDS011;5685;52.384;13.420;2022-11-15T05:50:21;13.53;;;12.33;;
11255;SDS011;5685;52.384;13.420;2022-11-15T05:53:25;13.03;;;11.93;;
11255;SDS011;5685;52.384;13.420;2022-11-15T05:56:28;12.87;;;11.67;;
11255;SDS011;5685;52.384;13.420;2022-11-15T05:59:31;11.97;;;10.93;;
11255;SDS011;5685;52.384;13.420;2022-11-15T06:02:34;13.43;;;12.23;;
11255;SDS011;5685;52.384;13.420;2022-11-15T06:05:37;11.83;;;10.83;;
11255;SDS011;5685;52.384;13.420;2022-11-15T06:08:40;12.63;;;11.53;;
11255;SDS011;5685;52.384;13.420;2022-11-15T06:11:43;12.60;;;11.50;;
11255;SDS011;5685;52.384;13.420;2022-11-15T06:14:45;13.03;;;11.93;;
11255;SDS011;5685;52.384;13.420;2022-11-15T06:17:47;12.27;;;11.23;;
11255;SDS011;5685;52.384;13.420;2022-11-15T06:38:06;12.10;;;11.00;;
11255;SDS011;5685;52.384;13.420;2022-11-15T06:41:11;13.10;;;11.90;;
11255;SDS011;5685;52.384;13.420;2022-11-15T06:44:15;13.00;;;12.00;;
11255;SDS011;5685;52.384;13.420;2022-11-15T06:47:17;12.40;;;11.27;;
11255;SDS011;5685;52.384;13.420;2022-11-15T06:50:19;13.30;;;12.03;;
11255;SDS011;5685;52.384;13.420;2022-11-15T06:53:23;11.87;;;10.80;;
11255;SDS011;5685;52.384;13.420;2022-11-15T06:56:26;12.20;;;11.20;;
11255;SDS011;5685;52.384;13.420;2022-11-15T06:59:28;14.23;;;12.93;;
11255;SDS011;5685;52.384;13.420;2022-11-15T07:02:31;12.20;;;11.10;;
11255;SDS011;5685;52.384;13.420;2022-11-15T07:05:33;13.07;;;11.87;;
11255;SDS011;5685;52.384;13.420;2022-11-15T07:08:37;13.67;;;12.47;;
11255;SDS011;5685;52.384;13.420;2022-11-15T07:11:41;12.93;;;11.73;;
11255;SDS011;5685;52.384;13.420;2022-11-15T07:14:44;12.83;;;11.73;;
11255;SDS011;5685;52.384;13.420;2022-11-15T07:17:46;12.47;;;11.37;;
11255;SDS011;5685;52.384;13.420;2022-11-15T07:20:48;12.10;;;11.03;;
11255;SDS011;5685;52.384;13.420;2022-11-15T07:23:52;11.70;;;10.70;;
11255;SDS011;5685;52.384;13.420;2022-11-15T07:26:55;13.93;;;12.67;;
11255;SDS011;5685;52.384;13.420;2022-11-15T07:29:57;12.10;;;10.90;;
11255;SDS011;5685;52.384;13.420;2022-11-15T07:33:00;12.50;;;11.33;;
11255;SDS011;5685;52.384;13.420;2022-11-15T07:36:03;11.93;;;10.93;;
11255;SDS011;5685;52.384;13.420;2022-11-15T07:39:08;12.73;;;11.60;;
11255;SDS011;5685;52.384;13.420;2022-11-15T07:42:12;13.23;;;12.03;;
11255;SDS011;5685;52.384;13.420;2022-11-15T07:45:31;12.93;;;11.50;;
11255;SDS011;5685;52.384;13.420;2022-11-15T07:48:34;12.27;;;11.17;;
11255;SDS011;5685;52.384;13.420;2022-11-15T07:51:37;12.53;;;11.53;;
11255;SDS011;5685;52.384;13.420;2022-11-15T07:54:41;12.33;;;11.30;;
11255;SDS011;5685;52.384;13.420;2022-11-15T07:57:43;12.63;;;11.53;;
11255;SDS011;5685;52.384;13.420;2022-11-15T08:00:46;12.00;;;11.03;;
11255;SDS011;5685;52.384;13.420;2022-11-15T08:03:48;12.77;;;11.67;;
11255;SDS011;5685;52.384;13.420;2022-11-15T08:06:50;12.70;;;11.60;;
11255;SDS011;5685;52.384;13.420;2022-11-15T08:09:54;12.90;;;11.80;;
11255;SDS011;5685;52.384;13.420;2022-11-15T08:12:57;12.43;;;11.33;;
11255;SDS011;5685;52.384;13.420;2022-11-15T08:16:01;12.40;;;11.40;;
11255;SDS011;5685;52.384;13.420;2022-11-15T08:19:05;12.60;;;11.40;;
11255;SDS011;5685;52.384;13.420;2022-11-15T08:22:07;11.97;;;10.97;;
11255;SDS011;5685;52.384;13.420;2022-11-15T08:25:11;12.23;;;11.13;;
11255;SDS011;5685;52.384;13.420;2022-11-15T08:28:15;11.50;;;10.50;;
11255;SDS011;5685;52.384;13.420;2022-11-15T08:31:18;12.47;;;11.37;;
11255;SDS011;5685;52.384;13.420;2022-11-15T08:34:21;12.43;;;11.43;;
11255;SDS011;5685;52.384;13.420;2022-11-15T08:37:23;12.60;;;11.50;;
11255;SDS011;5685;52.384;13.420;2022-11-15T08:40:27;11.97;;;11.07;;
11255;SDS011;5685;52.384;13.420;2022-11-15T08:43:29;12.30;;;11.30;;
11255;SDS011;5685;52.384;13.420;2022-11-15T08:46:31;12.53;;;11.53;;
11255;SDS011;5685;52.384;13.420;2022-11-15T08:49:34;11.87;;;10.87;;
11255;SDS011;5685;52.384;13.420;2022-11-15T08:52:36;11.90;;;10.93;;
11255;SDS011;5685;52.384;13.420;2022-11-15T08:55:40;12.93;;;11.83;;
11255;SDS011;5685;52.384;13.420;2022-11-15T08:58:43;12.23;;;11.10;;
11255;SDS011;5685;52.384;13.420;2022-11-15T09:01:45;12.37;;;11.37;;
11255;SDS011;5685;52.384;13.420;2022-11-15T09:04:47;12.97;;;11.77;;
11255;SDS011;5685;52.384;13.420;2022-11-15T09:07:52;11.70;;;10.70;;
11255;SDS011;5685;52.384;13.420;2022-11-15T09:10:56;12.07;;;11.07;;
11255;SDS011;5685;52.384;13.420;2022-11-15T09:13:59;11.90;;;10.80;;
11255;SDS011;5685;52.384;13.420;2022-11-15T09:17:01;11.73;;;10.73;;
11255;SDS011;5685;52.384;13.420;2022-11-15T09:20:05;11.07;;;10.07;;
11255;SDS011;5685;52.384;13.420;2022-11-15T09:23:08;11.67;;;10.67;;
11255;SDS011;5685;52.384;13.420;2022-11-15T09:26:12;11.83;;;10.73;;
11255;SDS011;5685;52.384;13.420;2022-11-15T09:29:15;12.03;;;11.00;;
11255;SDS011;5685;52.384;13.420;2022-11-15T09:32:17;10.83;;;10.03;;
11255;SDS011;5685;52.384;13.420;2022-11-15T09:35:19;11.80;;;10.87;;
11255;SDS011;5685;52.384;13.420;2022-11-15T09:38:21;11.17;;;10.27;;
11255;SDS011;5685;52.384;13.420;2022-11-15T09:41:38;11.67;;;10.67;;
11255;SDS011;5685;52.384;13.420;2022-11-15T09:45:11;11.13;;;10.23;;
11255;SDS011;5685;52.384;13.420;2022-11-15T09:48:26;11.67;;;10.70;;
11255;SDS011;5685;52.384;13.420;2022-11-15T09:51:50;11.50;;;10.50;;
11255;SDS011;5685;52.384;13.420;2022-11-15T09:54:55;11.37;;;10.53;;
11255;SDS011;5685;52.384;13.420;2022-11-15T09:58:00;11.40;;;10.53;;
11255;SDS011;5685;52.384;13.420;2022-11-15T10:01:11;10.83;;;10.03;;
11255;SDS011;5685;52.384;13.420;2022-11-15T10:04:19;10.50;;;9.70;;
11255;SDS011;5685;52.384;13.420;2022-11-15T10:07:24;11.40;;;10.50;;
11255;SDS011;5685;52.384;13.420;2022-11-15T10:10:35;11.10;;;10.20;;
11255;SDS011;5685;52.384;13.420;2022-11-15T10:13:43;10.70;;;9.90;;
11255;SDS011;5685;52.384;13.420;2022-11-15T10:16:53;10.50;;;9.60;;
11255;SDS011;5685;52.384;13.420;2022-11-15T10:20:46;10.27;;;9.47;;
11255;SDS011;5685;52.384;13.420;2022-11-15T10:23:50;10.27;;;9.47;;
11255;SDS011;5685;52.384;13.420;2022-11-15T10:26:54;9.90;;;9.20;;
11255;SDS011;5685;52.384;13.420;2022-11-15T10:29:58;9.97;;;9.27;;
11255;SDS011;5685;52.384;13.420;2022-11-15T10:33:08;10.80;;;9.90;;
11255;SDS011;5685;52.384;13.420;2022-11-15T10:36:27;10.10;;;9.30;;
11255;SDS011;5685;52.384;13.420;2022-11-15T10:39:29;9.93;;;9.23;;
11255;SDS011;5685;52.384;13.420;2022-11-15T10:42:33;10.30;;;9.50;;
11255;SDS011;5685;52.384;13.420;2022-11-15T10:45:36;10.63;;;9.80;;
11255;SDS011;5685;52.384;13.420;2022-11-15T10:48:39;10.87;;;9.87;;
11255;SDS011;5685;52.384;13.420;2022-11-15T10:51:43;10.60;;;9.70;;
11255;SDS011;5685;52.384;13.420;2022-11-15T10:54:49;10.63;;;9.73;;
11255;SDS011;5685;52.384;13.420;2022-11-15T10:57:55;10.37;;;9.57;;
11255;SDS011;5685;52.384;13.420;2022-11-15T11:01:11;10.27;;;9.57;;
11255;SDS011;5685;52.384;13.420;2022-11-15T11:04:16;10.10;;;9.40;;
11255;SDS011;5685;52.384;13.420;2022-11-15T11:07:20;10.97;;;10.07;;
11255;SDS011;5685;52.384;13.420;2022-11-15T11:10:25;10.73;;;10.00;;
11255;SDS011;5685;52.384;13.420;2022-11-15T11:13:28;9.90;;;9.20;;
11255;SDS011;5685;52.384;13.420;2022-11-15T11:16:41;9.70;;;9.00;;
11255;SDS011;5685;52.384;13.420;2022-11-15T11:19:49;9.60;;;8.90;;
11255;SDS011;5685;52.384;13.420;2022-11-15T11:23:12;9.70;;;8.90;;
11255;SDS011;5685;52.384;13.420;2022-11-15T11:26:40;10.43;;;9.43;;
11255;SDS011;5685;52.384;13.420;2022-11-15T11:29:51;10.13;;;9.33;;
11255;SDS011;5685;52.384;13.420;2022-11-15T11:33:09;9.87;;;9.07;;
11255;SDS011;5685;52.384;13.420;2022-11-15T11:36:20;10.90;;;10.00;;
11255;SDS011;5685;52.384;13.420;2022-11-15T11:39:28;9.67;;;8.97;;
11255;SDS011;5685;52.384;13.420;2022-11-15T11:42:46;9.40;;;8.80;;
11255;SDS011;5685;52.384;13.420;2022-11-15T11:46:03;9.67;;;9.07;;
11255;SDS011;5685;52.384;13.420;2022-11-15T11:49:41;9.60;;;8.93;;
11255;SDS011;5685;52.384;13.420;2022-11-15T11:52:52;9.57;;;8.87;;
11255;SDS011;5685;52.384;13.420;2022-11-15T11:56:01;9.50;;;8.90;;
11255;SDS011;5685;52.384;13.420;2022-11-15T11:59:09;9.57;;;8.83;;
11255;SDS011;5685;52.384;13.420;2022-11-15T12:02:20;9.70;;;9.00;;
11255;SDS011;5685;52.384;13.420;2022-11-15T12:05:32;9.67;;;9.03;;
11255;SDS011;5685;52.384;13.420;2022-11-15T12:08:40;9.40;;;8.80;;
11255;SDS011;5685;52.384;13.420;2022-11-15T12:11:50;8.90;;;8.30;;
11255;SDS011;5685;52.384;13.420;2022-11-15T12:15:00;9.63;;;8.93;;
11255;SDS011;5685;52.384;13.420;2022-11-15T12:18:12;9.47;;;8.77;;
11255;SDS011;5685;52.384;13.420;2022-11-15T12:21:20;9.03;;;8.43;;
11255;SDS011;5685;52.384;13.420;2022-11-15T12:24:32;9.73;;;9.03;;
11255;SDS011;5685;52.384;13.420;2022-11-15T12:27:40;9.53;;;8.83;;
11255;SDS011;5685;52.384;13.420;2022-11-15T12:30:48;9.20;;;8.50;;
11255;SDS011;5685;52.384;13.420;2022-11-15T12:33:55;9.57;;;8.87;;
11255;SDS011;5685;52.384;13.420;2022-11-15T12:37:00;10.03;;;9.33;;
11255;SDS011;5685;52.384;13.420;2022-11-15T12:40:04;9.77;;;9.07;;
11255;SDS011;5685;52.384;13.420;2022-11-15T12:43:35;9.33;;;8.70;;
11255;SDS011;5685;52.384;13.420;2022-11-15T12:50:10;9.30;;;8.70;;
11255;SDS011;5685;52.384;13.420;2022-11-15T12:53:30;10.10;;;9.40;;
11255;SDS011;5685;52.384;13.420;2022-11-15T12:56:35;9.70;;;9.00;;
11255;SDS011;5685;52.384;13.420;2022-11-15T12:59:49;9.70;;;9.03;;
11255;SDS011;5685;52.384;13.420;2022-11-15T13:06:34;9.73;;;9.03;;
11255;SDS011;5685;52.384;13.420;2022-11-15T13:09:53;9.90;;;9.20;;
11255;SDS011;5685;52.384;13.420;2022-11-15T13:12:57;9.23;;;8.63;;
11255;SDS011;5685;52.384;13.420;2022-11-15T13:16:01;9.37;;;8.77;;
11255;SDS011;5685;52.384;13.420;2022-11-15T13:19:03;9.90;;;9.20;;
11255;SDS011;5685;52.384;13.420;2022-11-15T13:22:08;9.00;;;8.50;;
11255;SDS011;5685;52.384;13.420;2022-11-15T13:25:54;9.00;;;8.30;;
11255;SDS011;5685;52.384;13.420;2022-11-15T13:29:15;9.03;;;8.40;;
11255;SDS011;5685;52.384;13.420;2022-11-15T13:32:19;9.37;;;8.77;;
11255;SDS011;5685;52.384;13.420;2022-11-15T13:35:23;8.80;;;8.20;;
11255;SDS011;5685;52.384;13.420;2022-11-15T13:38:29;9.20;;;8.50;;
11255;SDS011;5685;52.384;13.420;2022-11-15T13:41:35;9.40;;;8.70;;
11255;SDS011;5685;52.384;13.420;2022-11-15T13:44:54;9.10;;;8.50;;
11255;SDS011;5685;52.384;13.420;2022-11-15T13:47:57;9.20;;;8.60;;
11255;SDS011;5685;52.384;13.420;2022-11-15T13:51:00;8.70;;;8.10;;
11255;SDS011;5685;52.384;13.420;2022-11-15T13:54:12;8.87;;;8.27;;
11255;SDS011;5685;52.384;13.420;2022-11-15T13:57:23;8.67;;;8.17;;
11255;SDS011;5685;52.384;13.420;2022-11-15T14:00:33;8.87;;;8.37;;
11255;SDS011;5685;52.384;13.420;2022-11-15T14:03:41;8.53;;;7.93;;
11255;SDS011;5685;52.384;13.420;2022-11-15T14:06:55;8.93;;;8.33;;
11255;SDS011;5685;52.384;13.420;2022-11-15T14:13:30;7.87;;;7.37;;
11255;SDS011;5685;52.384;13.420;2022-11-15T14:16:33;8.30;;;7.70;;
11255;SDS011;5685;52.384;13.420;2022-11-15T14:19:38;9.00;;;8.27;;
11255;SDS011;5685;52.384;13.420;2022-11-15T14:22:50;9.17;;;8.57;;
11255;SDS011;5685;52.384;13.420;2022-11-15T14:25:54;8.67;;;8.07;;
11255;SDS011;5685;52.384;13.420;2022-11-15T14:32:27;8.50;;;7.90;;
11255;SDS011;5685;52.384;13.420;2022-11-15T14:35:32;8.27;;;7.77;;
11255;SDS011;5685;52.384;13.420;2022-11-15T14:38:39;8.93;;;8.33;;
11255;SDS011;5685;52.384;13.420;2022-11-15T14:41:43;9.37;;;8.67;;
11255;SDS011;5685;52.384;13.420;2022-11-15T14:44:47;9.30;;;8.60;;
11255;SDS011;5685;52.384;13.420;2022-11-15T14:47:49;9.77;;;9.07;;
11255;SDS011;5685;52.384;13.420;2022-11-15T14:50:51;8.97;;;8.30;;
11255;SDS011;5685;52.384;13.420;2022-11-15T14:53:53;9.47;;;8.77;;
11255;SDS011;5685;52.384;13.420;2022-11-15T14:56:56;9.13;;;8.43;;
11255;SDS011;5685;52.384;13.420;2022-11-15T14:59:59;9.50;;;8.70;;
11255;SDS011;5685;52.384;13.420;2022-11-15T15:03:03;9.43;;;8.73;;
11255;SDS011;5685;52.384;13.420;2022-11-15T15:06:06;9.27;;;8.57;;
11255;SDS011;5685;52.384;13.420;2022-11-15T15:09:09;9.80;;;9.03;;
11255;SDS011;5685;52.384;13.420;2022-11-15T15:12:14;9.87;;;9.17;;
11255;SDS011;5685;52.384;13.420;2022-11-15T15:15:22;9.90;;;9.00;;
11255;SDS011;5685;52.384;13.420;2022-11-15T15:18:27;9.87;;;9.17;;
11255;SDS011;5685;52.384;13.420;2022-11-15T15:21:30;9.20;;;8.30;;
11255;SDS011;5685;52.384;13.420;2022-11-15T15:24:32;9.27;;;8.63;;
11255;SDS011;5685;52.384;13.420;2022-11-15T15:27:34;9.50;;;8.77;;
11255;SDS011;5685;52.384;13.420;2022-11-15T15:30:38;9.13;;;8.47;;
11255;SDS011;5685;52.384;13.420;2022-11-15T15:33:41;9.00;;;8.40;;
11255;SDS011;5685;52.384;13.420;2022-11-15T15:36:43;9.60;;;8.73;;
11255;SDS011;5685;52.384;13.420;2022-11-15T15:39:45;10.00;;;9.13;;
11255;SDS011;5685;52.384;13.420;2022-11-15T15:42:47;9.73;;;8.93;;
11255;SDS011;5685;52.384;13.420;2022-11-15T15:45:52;9.27;;;8.50;;
11255;SDS011;5685;52.384;13.420;2022-11-15T15:48:54;9.33;;;8.63;;
11255;SDS011;5685;52.384;13.420;2022-11-15T15:51:56;9.83;;;9.03;;
11255;SDS011;5685;52.384;13.420;2022-11-15T15:54:59;9.73;;;8.83;;
11255;SDS011;5685;52.384;13.420;2022-11-15T15:58:01;9.57;;;8.80;;
11255;SDS011;5685;52.384;13.420;2022-11-15T16:01:05;9.97;;;9.10;;
11255;SDS011;5685;52.384;13.420;2022-11-15T16:04:07;9.90;;;9.10;;
11255;SDS011;5685;52.384;13.420;2022-11-15T16:07:12;10.50;;;9.37;;
11255;SDS011;5685;52.384;13.420;2022-11-15T16:10:24;9.60;;;8.77;;
11255;SDS011;5685;52.384;13.420;2022-11-15T16:13:28;9.37;;;8.57;;
11255;SDS011;5685;52.384;13.420;2022-11-15T16:16:32;9.73;;;8.90;;
11255;SDS011;5685;52.384;13.420;2022-11-15T16:19:35;9.40;;;8.70;;
11255;SDS011;5685;52.384;13.420;2022-11-15T16:22:37;9.93;;;9.20;;
11255;SDS011;5685;52.384;13.420;2022-11-15T16:25:41;9.90;;;9.10;;
11255;SDS011;5685;52.384;13.420;2022-11-15T16:28:47;9.17;;;8.53;;
11255;SDS011;5685;52.384;13.420;2022-11-15T16:31:51;9.43;;;8.73;;
11255;SDS011;5685;52.384;13.420;2022-11-15T16:34:54;10.40;;;9.50;;
11255;SDS011;5685;52.384;13.420;2022-11-15T16:37:56;10.57;;;9.50;;
11255;SDS011;5685;52.384;13.420;2022-11-15T16:40:58;9.87;;;9.07;;
11255;SDS011;5685;52.384;13.420;2022-11-15T16:44:01;10.30;;;9.30;;
11255;SDS011;5685;52.384;13.420;2022-11-15T16:47:04;9.90;;;9.10;;
11255;SDS011;5685;52.384;13.420;2022-11-15T16:50:17;10.53;;;9.63;;
11255;SDS011;5685;52.384;13.420;2022-11-15T16:53:23;10.60;;;9.57;;
11255;SDS011;5685;52.384;13.420;2022-11-15T16:56:26;10.60;;;9.70;;
11255;SDS011;5685;52.384;13.420;2022-11-15T16:59:30;10.87;;;9.87;;
11255;SDS011;5685;52.384;13.420;2022-11-15T17:02:34;10.60;;;9.70;;
11255;SDS011;5685;52.384;13.420;2022-11-15T17:05:36;11.13;;;10.27;;
11255;SDS011;5685;52.384;13.420;2022-11-15T17:08:38;11.03;;;10.13;;
11255;SDS011;5685;52.384;13.420;2022-11-15T17:11:41;10.20;;;9.27;;
11255;SDS011;5685;52.384;13.420;2022-11-15T17:14:43;10.63;;;9.83;;
11255;SDS011;5685;52.384;13.420;2022-11-15T17:17:51;11.17;;;10.07;;
11255;SDS011;5685;52.384;13.420;2022-11-15T17:20:54;11.63;;;9.93;;
11255;SDS011;5685;52.384;13.420;2022-11-15T17:23:58;11.10;;;10.10;;
11255;SDS011;5685;52.384;13.420;2022-11-15T17:27:00;10.83;;;9.83;;
11255;SDS011;5685;52.384;13.420;2022-11-15T17:30:03;10.67;;;9.67;;
11255;SDS011;5685;52.384;13.420;2022-11-15T17:33:08;10.60;;;9.67;;
11255;SDS011;5685;52.384;13.420;2022-11-15T17:36:11;10.43;;;9.43;;
11255;SDS011;5685;52.384;13.420;2022-11-15T17:39:13;10.40;;;9.60;;
11255;SDS011;5685;52.384;13.420;2022-11-15T17:42:17;11.23;;;10.30;;
11255;SDS011;5685;52.384;13.420;2022-11-15T17:45:19;10.90;;;10.00;;
11255;SDS011;5685;52.384;13.420;2022-11-15T17:48:23;10.33;;;9.50;;
11255;SDS011;5685;52.384;13.420;2022-11-15T17:51:26;11.70;;;10.60;;
11255;SDS011;5685;52.384;13.420;2022-11-15T17:54:28;11.33;;;10.43;;
11255;SDS011;5685;52.384;13.420;2022-11-15T17:57:31;11.27;;;10.23;;
11255;SDS011;5685;52.384;13.420;2022-11-15T18:00:33;10.63;;;9.83;;
11255;SDS011;5685;52.384;13.420;2022-11-15T18:03:38;10.77;;;9.87;;
11255;SDS011;5685;52.384;13.420;2022-11-15T18:06:40;11.07;;;10.07;;
11255;SDS011;5685;52.384;13.420;2022-11-15T18:09:43;12.13;;;11.03;;
11255;SDS011;5685;52.384;13.420;2022-11-15T18:12:45;11.03;;;10.00;;
11255;SDS011;5685;52.384;13.420;2022-11-15T18:15:48;11.57;;;10.67;;
11255;SDS011;5685;52.384;13.420;2022-11-15T18:18:57;11.13;;;10.13;;
11255;SDS011;5685;52.384;13.420;2022-11-15T18:22:00;13.60;;;10.63;;
11255;SDS011;5685;52.384;13.420;2022-11-15T18:25:04;11.37;;;10.27;;
11255;SDS011;5685;52.384;13.420;2022-11-15T18:28:07;11.90;;;10.90;;
11255;SDS011;5685;52.384;13.420;2022-11-15T18:31:11;11.07;;;10.20;;
11255;SDS011;5685;52.384;13.420;2022-11-15T18:34:16;12.20;;;11.00;;
11255;SDS011;5685;52.384;13.420;2022-11-15T18:37:19;11.50;;;10.50;;
11255;SDS011;5685;52.384;13.420;2022-11-15T18:40:21;11.40;;;10.43;;
11255;SDS011;5685;52.384;13.420;2022-11-15T18:43:26;11.57;;;10.67;;
11255;SDS011;5685;52.384;13.420;2022-11-15T18:46:30;11.57;;;10.57;;
11255;SDS011;5685;52.384;13.420;2022-11-15T18:49:34;12.83;;;11.73;;
11255;SDS011;5685;52.384;13.420;2022-11-15T18:52:36;12.60;;;11.53;;
11255;SDS011;5685;52.384;13.420;2022-11-15T18:55:38;12.37;;;11.27;;